sensor_id;sensor_type;location;lat;lon;timestamp;temperature;humidity
16732;DHT22;8484;50.904;9.192;2023-05-29T00:01:29;13.60;99.90
16732;DHT22;8484;50.904;9.192;2023-05-29T00:03:57;13.60;99.90
16732;DHT22;8484;50.904;9.192;2023-05-29T00:06:24;13.70;99.90
16732;DHT22;8484;50.904;9.192;2023-05-29T00:08:51;13.70;99.90
16732;DHT22;8484;50.904;9.192;2023-05-29T00:11:18;13.70;99.90
16732;DHT22;8484;50.904;9.192;2023-05-29T00:13:47;13.80;99.90
16732;DHT22;8484;50.904;9.192;2023-05-29T00:16:13;13.80;99.90
16732;DHT22;8484;50.904;9.192;2023-05-29T00:18:40;13.60;99.90
16732;DHT22;8484;50.904;9.192;2023-05-29T00:21:11;13.70;99.90
16732;DHT22;8484;50.904;9.192;2023-05-29T00:23:38;13.70;99.90
16732;DHT22;8484;50.904;9.192;2023-05-29T00:26:05;13.70;99.90
16732;DHT22;8484;50.904;9.192;2023-05-29T00:28:32;13.60;99.90
16732;DHT22;8484;50.904;9.192;2023-05-29T00:31:00;13.60;99.90
16732;DHT22;8484;50.904;9.192;2023-05-29T00:33:27;13.70;99.90
16732;DHT22;8484;50.904;9.192;2023-05-29T00:35:54;13.70;99.90
16732;DHT22;8484;50.904;9.192;2023-05-29T00:38:21;13.70;99.90
16732;DHT22;8484;50.904;9.192;2023-05-29T00:40:48;13.70;99.90
16732;DHT22;8484;50.904;9.192;2023-05-29T00:43:15;13.80;99.90
16732;DHT22;8484;50.904;9.192;2023-05-29T00:45:41;13.80;99.90
16732;DHT22;8484;50.904;9.192;2023-05-29T00:48:09;13.80;99.90
16732;DHT22;8484;50.904;9.192;2023-05-29T00:50:37;13.80;99.90
16732;DHT22;8484;50.904;9.192;2023-05-29T00:53:04;13.80;99.90
16732;DHT22;8484;50.904;9.192;2023-05-29T00:55:31;13.70;99.90
16732;DHT22;8484;50.904;9.192;2023-05-29T00:57:58;13.70;99.90
16732;DHT22;8484;50.904;9.192;2023-05-29T01:00:25;13.60;99.90
16732;DHT22;8484;50.904;9.192;2023-05-29T01:02:59;13.60;99.90
16732;DHT22;8484;50.904;9.192;2023-05-29T01:05:29;13.70;99.90
16732;DHT22;8484;50.904;9.192;2023-05-29T01:07:57;13.60;99.90
16732;DHT22;8484;50.904;9.192;2023-05-29T01:10:24;13.50;99.90
16732;DHT22;8484;50.904;9.192;2023-05-29T01:12:57;13.60;99.90
16732;DHT22;8484;50.904;9.192;2023-05-29T01:15:33;13.60;99.90
16732;DHT22;8484;50.904;9.192;2023-05-29T01:18:16;13.60;99.90
16732;DHT22;8484;50.904;9.192;2023-05-29T01:20:52;13.60;99.90
16732;DHT22;8484;50.904;9.192;2023-05-29T01:23:52;13.50;99.90
16732;DHT22;8484;50.904;9.192;2023-05-29T01:26:32;13.50;99.90
16732;DHT22;8484;50.904;9.192;2023-05-29T01:29:02;13.60;99.90
16732;DHT22;8484;50.904;9.192;2023-05-29T01:31:30;13.60;99.90
16732;DHT22;8484;50.904;9.192;2023-05-29T01:33:58;13.50;99.90
16732;DHT22;8484;50.904;9.192;2023-05-29T01:36:26;13.40;99.90
16732;DHT22;8484;50.904;9.192;2023-05-29T01:38:57;13.40;99.90
16732;DHT22;8484;50.904;9.192;2023-05-29T01:41:25;13.30;99.90
16732;DHT22;8484;50.904;9.192;2023-05-29T01:43:54;13.30;99.90
16732;DHT22;8484;50.904;9.192;2023-05-29T01:46:22;13.20;99.90
16732;DHT22;8484;50.904;9.192;2023-05-29T01:48:51;13.20;99.90
16732;DHT22;8484;50.904;9.192;2023-05-29T01:51:18;13.20;99.90
16732;DHT22;8484;50.904;9.192;2023-05-29T01:53:45;13.30;99.90
16732;DHT22;8484;50.904;9.192;2023-05-29T01:56:12;13.20;99.90
16732;DHT22;8484;50.904;9.192;2023-05-29T01:58:40;13.20;99.90
16732;DHT22;8484;50.904;9.192;2023-05-29T02:01:09;13.20;99.90
16732;DHT22;8484;50.904;9.192;2023-05-29T02:03:36;13.30;99.90
16732;DHT22;8484;50.904;9.192;2023-05-29T02:06:02;13.40;99.90
16732;DHT22;8484;50.904;9.192;2023-05-29T02:08:30;13.20;99.90
16732;DHT22;8484;50.904;9.192;2023-05-29T02:10:57;13.30;99.90
16732;DHT22;8484;50.904;9.192;2023-05-29T02:13:23;13.20;99.90
16732;DHT22;8484;50.904;9.192;2023-05-29T02:15:50;13.20;99.90
16732;DHT22;8484;50.904;9.192;2023-05-29T02:18:18;13.20;99.90
16732;DHT22;8484;50.904;9.192;2023-05-29T02:20:45;13.10;99.90
16732;DHT22;8484;50.904;9.192;2023-05-29T02:23:12;13.00;99.90
16732;DHT22;8484;50.904;9.192;2023-05-29T02:25:40;13.10;99.90
16732;DHT22;8484;50.904;9.192;2023-05-29T02:28:07;13.00;99.90
16732;DHT22;8484;50.904;9.192;2023-05-29T02:30:34;13.10;99.90
16732;DHT22;8484;50.904;9.192;2023-05-29T02:33:01;13.00;99.90
16732;DHT22;8484;50.904;9.192;2023-05-29T02:35:29;13.00;99.90
16732;DHT22;8484;50.904;9.192;2023-05-29T02:37:56;12.90;99.90
16732;DHT22;8484;50.904;9.192;2023-05-29T02:40:23;12.90;99.90
16732;DHT22;8484;50.904;9.192;2023-05-29T02:42:50;13.00;99.90
16732;DHT22;8484;50.904;9.192;2023-05-29T02:45:17;13.00;99.90
16732;DHT22;8484;50.904;9.192;2023-05-29T02:47:44;13.00;99.90
16732;DHT22;8484;50.904;9.192;2023-05-29T02:50:11;12.90;99.90
16732;DHT22;8484;50.904;9.192;2023-05-29T02:52:41;12.90;99.90
16732;DHT22;8484;50.904;9.192;2023-05-29T02:55:08;12.90;99.90
16732;DHT22;8484;50.904;9.192;2023-05-29T02:57:36;12.90;99.90
16732;DHT22;8484;50.904;9.192;2023-05-29T03:00:03;12.80;99.90
16732;DHT22;8484;50.904;9.192;2023-05-29T03:02:32;12.70;99.90
16732;DHT22;8484;50.904;9.192;2023-05-29T03:05:00;12.80;99.90
16732;DHT22;8484;50.904;9.192;2023-05-29T03:07:27;12.70;99.90
16732;DHT22;8484;50.904;9.192;2023-05-29T03:09:55;12.60;99.90
16732;DHT22;8484;50.904;9.192;2023-05-29T03:12:23;12.60;99.90
16732;DHT22;8484;50.904;9.192;2023-05-29T03:14:50;12.60;99.90
16732;DHT22;8484;50.904;9.192;2023-05-29T03:17:17;12.60;99.90
16732;DHT22;8484;50.904;9.192;2023-05-29T03:19:44;12.60;99.90
16732;DHT22;8484;50.904;9.192;2023-05-29T03:22:10;12.60;99.90
16732;DHT22;8484;50.904;9.192;2023-05-29T03:24:37;12.60;99.90
16732;DHT22;8484;50.904;9.192;2023-05-29T03:27:05;12.60;99.90
16732;DHT22;8484;50.904;9.192;2023-05-29T03:29:32;12.60;99.90
16732;DHT22;8484;50.904;9.192;2023-05-29T03:31:59;12.60;99.90
16732;DHT22;8484;50.904;9.192;2023-05-29T03:34:26;12.50;99.90
16732;DHT22;8484;50.904;9.192;2023-05-29T03:36:53;12.50;99.90
16732;DHT22;8484;50.904;9.192;2023-05-29T03:39:20;12.60;99.90
16732;DHT22;8484;50.904;9.192;2023-05-29T03:41:47;12.70;99.90
16732;DHT22;8484;50.904;9.192;2023-05-29T03:44:15;12.50;99.90
16732;DHT22;8484;50.904;9.192;2023-05-29T03:46:42;12.40;99.90
16732;DHT22;8484;50.904;9.192;2023-05-29T03:49:08;12.50;99.90
16732;DHT22;8484;50.904;9.192;2023-05-29T03:51:35;12.60;99.90
16732;DHT22;8484;50.904;9.192;2023-05-29T03:54:03;12.60;99.90
16732;DHT22;8484;50.904;9.192;2023-05-29T03:56:30;12.60;99.90
16732;DHT22;8484;50.904;9.192;2023-05-29T03:58:57;12.50;99.90
16732;DHT22;8484;50.904;9.192;2023-05-29T04:01:25;12.60;99.90
16732;DHT22;8484;50.904;9.192;2023-05-29T04:03:52;12.70;99.90
16732;DHT22;8484;50.904;9.192;2023-05-29T04:06:19;12.70;99.90
16732;DHT22;8484;50.904;9.192;2023-05-29T04:08:47;12.70;99.90
16732;DHT22;8484;50.904;9.192;2023-05-29T04:11:14;12.70;99.90
16732;DHT22;8484;50.904;9.192;2023-05-29T04:13:41;12.60;99.90
16732;DHT22;8484;50.904;9.192;2023-05-29T04:16:15;12.70;99.90
16732;DHT22;8484;50.904;9.192;2023-05-29T04:18:45;12.80;99.90
16732;DHT22;8484;50.904;9.192;2023-05-29T04:21:13;12.80;99.90
16732;DHT22;8484;50.904;9.192;2023-05-29T04:23:42;12.70;99.90
16732;DHT22;8484;50.904;9.192;2023-05-29T04:26:11;12.70;99.90
16732;DHT22;8484;50.904;9.192;2023-05-29T04:28:38;12.80;99.90
16732;DHT22;8484;50.904;9.192;2023-05-29T04:31:06;12.80;99.90
16732;DHT22;8484;50.904;9.192;2023-05-29T04:33:33;12.90;99.90
16732;DHT22;8484;50.904;9.192;2023-05-29T04:36:04;12.90;99.90
16732;DHT22;8484;50.904;9.192;2023-05-29T04:38:37;13.00;99.90
16732;DHT22;8484;50.904;9.192;2023-05-29T04:41:05;13.10;99.90
16732;DHT22;8484;50.904;9.192;2023-05-29T04:43:38;13.10;99.90
16732;DHT22;8484;50.904;9.192;2023-05-29T04:46:10;13.10;99.90
16732;DHT22;8484;50.904;9.192;2023-05-29T04:48:38;13.30;99.90
16732;DHT22;8484;50.904;9.192;2023-05-29T04:51:07;13.40;99.90
16732;DHT22;8484;50.904;9.192;2023-05-29T04:53:36;13.40;99.90
16732;DHT22;8484;50.904;9.192;2023-05-29T04:56:03;13.50;99.90
16732;DHT22;8484;50.904;9.192;2023-05-29T04:58:30;13.50;99.90
16732;DHT22;8484;50.904;9.192;2023-05-29T05:00:57;13.60;99.90
16732;DHT22;8484;50.904;9.192;2023-05-29T05:03:24;13.70;99.90
16732;DHT22;8484;50.904;9.192;2023-05-29T05:05:51;13.70;99.90
16732;DHT22;8484;50.904;9.192;2023-05-29T05:08:19;13.70;99.90
16732;DHT22;8484;50.904;9.192;2023-05-29T05:10:46;13.70;99.90
16732;DHT22;8484;50.904;9.192;2023-05-29T05:13:13;13.90;99.90
16732;DHT22;8484;50.904;9.192;2023-05-29T05:15:39;14.00;99.90
16732;DHT22;8484;50.904;9.192;2023-05-29T05:18:07;14.20;99.90
16732;DHT22;8484;50.904;9.192;2023-05-29T05:20:34;14.10;99.90
16732;DHT22;8484;50.904;9.192;2023-05-29T05:23:01;14.20;99.90
16732;DHT22;8484;50.904;9.192;2023-05-29T05:25:30;14.30;99.90
16732;DHT22;8484;50.904;9.192;2023-05-29T05:27:58;14.50;99.90
16732;DHT22;8484;50.904;9.192;2023-05-29T05:30:25;14.60;99.90
16732;DHT22;8484;50.904;9.192;2023-05-29T05:32:52;14.70;99.90
16732;DHT22;8484;50.904;9.192;2023-05-29T05:35:19;14.70;99.90
16732;DHT22;8484;50.904;9.192;2023-05-29T05:37:45;14.60;99.90
16732;DHT22;8484;50.904;9.192;2023-05-29T05:40:12;14.80;99.90
16732;DHT22;8484;50.904;9.192;2023-05-29T05:42:41;14.90;99.90
16732;DHT22;8484;50.904;9.192;2023-05-29T05:45:09;15.00;99.90
16732;DHT22;8484;50.904;9.192;2023-05-29T05:47:36;15.20;99.90
16732;DHT22;8484;50.904;9.192;2023-05-29T05:50:04;15.20;99.90
16732;DHT22;8484;50.904;9.192;2023-05-29T05:52:31;15.40;99.90
16732;DHT22;8484;50.904;9.192;2023-05-29T05:54:59;15.40;99.90
16732;DHT22;8484;50.904;9.192;2023-05-29T05:57:25;15.60;99.90
16732;DHT22;8484;50.904;9.192;2023-05-29T05:59:54;15.50;99.90
16732;DHT22;8484;50.904;9.192;2023-05-29T06:02:20;15.50;99.90
16732;DHT22;8484;50.904;9.192;2023-05-29T06:04:47;15.50;99.90
16732;DHT22;8484;50.904;9.192;2023-05-29T06:07:15;15.50;99.90
16732;DHT22;8484;50.904;9.192;2023-05-29T06:09:43;15.40;99.90
16732;DHT22;8484;50.904;9.192;2023-05-29T06:12:09;15.40;99.90
16732;DHT22;8484;50.904;9.192;2023-05-29T06:14:36;15.70;99.90
16732;DHT22;8484;50.904;9.192;2023-05-29T06:17:04;15.70;99.90
16732;DHT22;8484;50.904;9.192;2023-05-29T06:19:31;15.50;99.90
16732;DHT22;8484;50.904;9.192;2023-05-29T06:21:58;15.60;99.90
16732;DHT22;8484;50.904;9.192;2023-05-29T06:24:25;15.70;99.90
16732;DHT22;8484;50.904;9.192;2023-05-29T06:26:52;15.80;99.90
16732;DHT22;8484;50.904;9.192;2023-05-29T06:29:19;15.80;99.90
16732;DHT22;8484;50.904;9.192;2023-05-29T06:31:45;15.80;99.90
16732;DHT22;8484;50.904;9.192;2023-05-29T06:34:14;16.00;99.90
16732;DHT22;8484;50.904;9.192;2023-05-29T06:36:41;16.20;99.90
16732;DHT22;8484;50.904;9.192;2023-05-29T06:39:08;16.10;99.90
16732;DHT22;8484;50.904;9.192;2023-05-29T06:41:35;16.30;99.90
16732;DHT22;8484;50.904;9.192;2023-05-29T06:44:01;16.30;99.90
16732;DHT22;8484;50.904;9.192;2023-05-29T06:46:28;16.30;99.90
16732;DHT22;8484;50.904;9.192;2023-05-29T06:48:56;16.20;99.90
16732;DHT22;8484;50.904;9.192;2023-05-29T06:51:24;16.50;99.90
16732;DHT22;8484;50.904;9.192;2023-05-29T06:53:51;16.50;99.90
16732;DHT22;8484;50.904;9.192;2023-05-29T06:56:17;16.50;99.90
16732;DHT22;8484;50.904;9.192;2023-05-29T06:58:44;16.70;99.90
16732;DHT22;8484;50.904;9.192;2023-05-29T07:01:12;16.60;99.90
16732;DHT22;8484;50.904;9.192;2023-05-29T07:03:38;16.50;99.90
16732;DHT22;8484;50.904;9.192;2023-05-29T07:06:05;16.40;99.90
16732;DHT22;8484;50.904;9.192;2023-05-29T07:08:34;16.60;99.90
16732;DHT22;8484;50.904;9.192;2023-05-29T07:11:01;17.00;99.90
16732;DHT22;8484;50.904;9.192;2023-05-29T07:13:29;17.50;99.90
16732;DHT22;8484;50.904;9.192;2023-05-29T07:15:55;17.40;99.90
16732;DHT22;8484;50.904;9.192;2023-05-29T07:18:22;17.60;99.90
16732;DHT22;8484;50.904;9.192;2023-05-29T07:20:49;17.40;99.90
16732;DHT22;8484;50.904;9.192;2023-05-29T07:23:16;17.50;99.90
16732;DHT22;8484;50.904;9.192;2023-05-29T07:25:44;17.60;99.90
16732;DHT22;8484;50.904;9.192;2023-05-29T07:28:11;17.80;99.90
16732;DHT22;8484;50.904;9.192;2023-05-29T07:30:38;18.20;99.90
16732;DHT22;8484;50.904;9.192;2023-05-29T07:33:05;18.60;99.90
16732;DHT22;8484;50.904;9.192;2023-05-29T07:35:32;18.30;99.90
16732;DHT22;8484;50.904;9.192;2023-05-29T07:37:59;18.20;99.90
16732;DHT22;8484;50.904;9.192;2023-05-29T07:40:26;18.50;99.90
16732;DHT22;8484;50.904;9.192;2023-05-29T07:42:54;18.80;99.90
16732;DHT22;8484;50.904;9.192;2023-05-29T07:45:20;19.10;99.90
16732;DHT22;8484;50.904;9.192;2023-05-29T07:47:47;19.20;99.90
16732;DHT22;8484;50.904;9.192;2023-05-29T07:50:14;19.30;99.90
16732;DHT22;8484;50.904;9.192;2023-05-29T07:52:42;19.10;99.90
16732;DHT22;8484;50.904;9.192;2023-05-29T07:55:09;19.20;99.90
16732;DHT22;8484;50.904;9.192;2023-05-29T07:57:35;19.30;99.90
16732;DHT22;8484;50.904;9.192;2023-05-29T08:00:05;19.40;99.90
16732;DHT22;8484;50.904;9.192;2023-05-29T08:02:34;19.50;99.90
16732;DHT22;8484;50.904;9.192;2023-05-29T08:05:02;19.50;99.90
16732;DHT22;8484;50.904;9.192;2023-05-29T08:07:29;20.00;99.90
16732;DHT22;8484;50.904;9.192;2023-05-29T08:09:56;20.00;99.90
16732;DHT22;8484;50.904;9.192;2023-05-29T08:12:22;20.10;99.90
16732;DHT22;8484;50.904;9.192;2023-05-29T08:14:50;19.70;99.90
16732;DHT22;8484;50.904;9.192;2023-05-29T08:17:18;19.70;99.90
16732;DHT22;8484;50.904;9.192;2023-05-29T08:19:45;20.30;99.90
16732;DHT22;8484;50.904;9.192;2023-05-29T08:22:13;20.80;99.90
16732;DHT22;8484;50.904;9.192;2023-05-29T08:24:41;21.00;99.90
16732;DHT22;8484;50.904;9.192;2023-05-29T08:27:11;20.90;99.90
16732;DHT22;8484;50.904;9.192;2023-05-29T08:29:38;21.10;99.90
16732;DHT22;8484;50.904;9.192;2023-05-29T08:32:05;21.10;99.90
16732;DHT22;8484;50.904;9.192;2023-05-29T08:34:33;21.30;99.90
16732;DHT22;8484;50.904;9.192;2023-05-29T08:37:00;21.50;99.90
16732;DHT22;8484;50.904;9.192;2023-05-29T08:39:27;21.70;99.90
16732;DHT22;8484;50.904;9.192;2023-05-29T08:41:59;21.60;99.90
16732;DHT22;8484;50.904;9.192;2023-05-29T08:44:29;21.80;99.90
16732;DHT22;8484;50.904;9.192;2023-05-29T08:46:57;21.90;99.90
16732;DHT22;8484;50.904;9.192;2023-05-29T08:49:29;22.30;99.90
16732;DHT22;8484;50.904;9.192;2023-05-29T08:52:08;21.80;99.90
16732;DHT22;8484;50.904;9.192;2023-05-29T08:54:36;22.10;99.90
16732;DHT22;8484;50.904;9.192;2023-05-29T08:57:03;22.30;99.90
16732;DHT22;8484;50.904;9.192;2023-05-29T08:59:30;22.80;99.90
16732;DHT22;8484;50.904;9.192;2023-05-29T09:01:57;22.90;98.60
16732;DHT22;8484;50.904;9.192;2023-05-29T09:04:24;22.90;99.90
16732;DHT22;8484;50.904;9.192;2023-05-29T09:06:51;22.90;98.80
16732;DHT22;8484;50.904;9.192;2023-05-29T09:09:22;23.20;98.30
16732;DHT22;8484;50.904;9.192;2023-05-29T09:11:49;22.80;99.10
16732;DHT22;8484;50.904;9.192;2023-05-29T09:14:33;23.10;97.60
16732;DHT22;8484;50.904;9.192;2023-05-29T09:17:01;22.90;98.20
16732;DHT22;8484;50.904;9.192;2023-05-29T09:19:28;23.30;97.80
16732;DHT22;8484;50.904;9.192;2023-05-29T09:22:00;23.20;97.70
16732;DHT22;8484;50.904;9.192;2023-05-29T09:24:29;23.50;96.20
16732;DHT22;8484;50.904;9.192;2023-05-29T09:26:56;22.70;98.50
16732;DHT22;8484;50.904;9.192;2023-05-29T09:29:25;23.40;97.60
16732;DHT22;8484;50.904;9.192;2023-05-29T09:31:52;23.90;96.70
16732;DHT22;8484;50.904;9.192;2023-05-29T09:34:18;24.00;96.60
16732;DHT22;8484;50.904;9.192;2023-05-29T09:36:45;24.00;97.80
16732;DHT22;8484;50.904;9.192;2023-05-29T09:39:12;24.10;97.80
16732;DHT22;8484;50.904;9.192;2023-05-29T09:41:43;23.50;97.20
16732;DHT22;8484;50.904;9.192;2023-05-29T09:44:12;23.80;95.50
16732;DHT22;8484;50.904;9.192;2023-05-29T09:46:41;23.90;96.70
16732;DHT22;8484;50.904;9.192;2023-05-29T09:49:11;24.70;96.10
16732;DHT22;8484;50.904;9.192;2023-05-29T09:51:38;24.60;94.60
16732;DHT22;8484;50.904;9.192;2023-05-29T09:54:18;24.90;95.40
16732;DHT22;8484;50.904;9.192;2023-05-29T09:56:47;24.90;95.40
16732;DHT22;8484;50.904;9.192;2023-05-29T09:59:14;25.00;95.00
16732;DHT22;8484;50.904;9.192;2023-05-29T10:01:44;25.00;94.80
16732;DHT22;8484;50.904;9.192;2023-05-29T10:04:11;24.20;96.70
16732;DHT22;8484;50.904;9.192;2023-05-29T10:06:44;24.20;97.10
16732;DHT22;8484;50.904;9.192;2023-05-29T10:09:12;25.20;95.20
16732;DHT22;8484;50.904;9.192;2023-05-29T10:11:43;25.00;94.50
16732;DHT22;8484;50.904;9.192;2023-05-29T10:14:16;25.60;93.10
16732;DHT22;8484;50.904;9.192;2023-05-29T10:16:46;25.60;93.50
16732;DHT22;8484;50.904;9.192;2023-05-29T10:19:19;25.20;94.10
16732;DHT22;8484;50.904;9.192;2023-05-29T10:21:49;25.70;93.30
16732;DHT22;8484;50.904;9.192;2023-05-29T10:24:18;26.10;91.90
16732;DHT22;8484;50.904;9.192;2023-05-29T10:26:48;26.40;92.20
16732;DHT22;8484;50.904;9.192;2023-05-29T10:29:23;26.40;91.20
16732;DHT22;8484;50.904;9.192;2023-05-29T10:32:04;26.00;91.80
16732;DHT22;8484;50.904;9.192;2023-05-29T10:34:39;27.00;92.20
16732;DHT22;8484;50.904;9.192;2023-05-29T10:37:18;26.20;92.70
16732;DHT22;8484;50.904;9.192;2023-05-29T10:39:47;26.60;92.10
16732;DHT22;8484;50.904;9.192;2023-05-29T10:42:45;27.10;91.50
16732;DHT22;8484;50.904;9.192;2023-05-29T10:45:49;27.30;90.70
16732;DHT22;8484;50.904;9.192;2023-05-29T10:48:37;28.10;89.70
16732;DHT22;8484;50.904;9.192;2023-05-29T10:51:05;27.90;87.70
16732;DHT22;8484;50.904;9.192;2023-05-29T10:53:32;26.90;89.00
16732;DHT22;8484;50.904;9.192;2023-05-29T10:55:59;26.40;91.00
16732;DHT22;8484;50.904;9.192;2023-05-29T10:58:30;26.80;88.80
16732;DHT22;8484;50.904;9.192;2023-05-29T11:00:59;27.00;90.10
16732;DHT22;8484;50.904;9.192;2023-05-29T11:03:31;27.20;89.60
16732;DHT22;8484;50.904;9.192;2023-05-29T11:05:59;27.60;89.70
16732;DHT22;8484;50.904;9.192;2023-05-29T11:08:33;27.80;88.30
16732;DHT22;8484;50.904;9.192;2023-05-29T11:11:01;27.50;88.80
16732;DHT22;8484;50.904;9.192;2023-05-29T11:13:32;27.10;87.70
16732;DHT22;8484;50.904;9.192;2023-05-29T11:16:11;26.70;91.40
16732;DHT22;8484;50.904;9.192;2023-05-29T11:18:41;27.20;89.30
16732;DHT22;8484;50.904;9.192;2023-05-29T11:21:21;27.50;88.60
16732;DHT22;8484;50.904;9.192;2023-05-29T11:23:50;27.20;88.50
16732;DHT22;8484;50.904;9.192;2023-05-29T11:26:17;26.80;91.00
16732;DHT22;8484;50.904;9.192;2023-05-29T11:28:44;26.70;90.20
16732;DHT22;8484;50.904;9.192;2023-05-29T11:31:15;27.10;89.20
16732;DHT22;8484;50.904;9.192;2023-05-29T11:33:47;27.50;87.30
16732;DHT22;8484;50.904;9.192;2023-05-29T11:36:14;27.80;89.00
16732;DHT22;8484;50.904;9.192;2023-05-29T11:38:41;27.60;89.90
16732;DHT22;8484;50.904;9.192;2023-05-29T11:41:09;27.90;87.50
16732;DHT22;8484;50.904;9.192;2023-05-29T11:43:36;27.70;89.40
16732;DHT22;8484;50.904;9.192;2023-05-29T11:46:18;26.60;90.50
16732;DHT22;8484;50.904;9.192;2023-05-29T11:48:46;27.20;85.70
16732;DHT22;8484;50.904;9.192;2023-05-29T11:51:13;27.00;90.50
16732;DHT22;8484;50.904;9.192;2023-05-29T11:53:41;27.50;86.20
16732;DHT22;8484;50.904;9.192;2023-05-29T11:56:09;27.70;84.10
16732;DHT22;8484;50.904;9.192;2023-05-29T11:58:36;27.50;87.00
16732;DHT22;8484;50.904;9.192;2023-05-29T12:01:03;27.80;85.30
16732;DHT22;8484;50.904;9.192;2023-05-29T12:03:37;27.80;87.70
16732;DHT22;8484;50.904;9.192;2023-05-29T12:06:05;28.40;81.60
16732;DHT22;8484;50.904;9.192;2023-05-29T12:08:33;28.80;84.20
16732;DHT22;8484;50.904;9.192;2023-05-29T12:11:00;29.20;81.90
16732;DHT22;8484;50.904;9.192;2023-05-29T12:13:27;28.70;82.30
16732;DHT22;8484;50.904;9.192;2023-05-29T12:15:56;28.70;83.70
16732;DHT22;8484;50.904;9.192;2023-05-29T12:18:24;27.70;82.60
16732;DHT22;8484;50.904;9.192;2023-05-29T12:20:56;27.60;82.40
16732;DHT22;8484;50.904;9.192;2023-05-29T12:23:23;27.90;83.20
16732;DHT22;8484;50.904;9.192;2023-05-29T12:25:51;27.80;83.20
16732;DHT22;8484;50.904;9.192;2023-05-29T12:28:19;27.40;84.90
16732;DHT22;8484;50.904;9.192;2023-05-29T12:30:47;27.60;83.40
16732;DHT22;8484;50.904;9.192;2023-05-29T12:33:25;27.50;83.10
16732;DHT22;8484;50.904;9.192;2023-05-29T12:36:00;26.90;80.00
16732;DHT22;8484;50.904;9.192;2023-05-29T12:38:27;27.10;80.20
16732;DHT22;8484;50.904;9.192;2023-05-29T12:40:54;26.40;83.60
16732;DHT22;8484;50.904;9.192;2023-05-29T12:43:22;27.20;83.20
16732;DHT22;8484;50.904;9.192;2023-05-29T12:45:54;27.70;84.50
16732;DHT22;8484;50.904;9.192;2023-05-29T12:48:26;27.40;83.80
16732;DHT22;8484;50.904;9.192;2023-05-29T12:50:54;27.70;82.70
16732;DHT22;8484;50.904;9.192;2023-05-29T12:53:28;27.70;82.90
16732;DHT22;8484;50.904;9.192;2023-05-29T12:55:56;28.10;81.70
16732;DHT22;8484;50.904;9.192;2023-05-29T12:58:23;27.60;83.10
16732;DHT22;8484;50.904;9.192;2023-05-29T13:00:52;27.00;84.10
16732;DHT22;8484;50.904;9.192;2023-05-29T13:03:21;27.40;84.60
16732;DHT22;8484;50.904;9.192;2023-05-29T13:05:49;27.20;83.40
16732;DHT22;8484;50.904;9.192;2023-05-29T13:08:17;27.10;82.00
16732;DHT22;8484;50.904;9.192;2023-05-29T13:10:44;27.20;83.50
16732;DHT22;8484;50.904;9.192;2023-05-29T13:13:11;26.00;86.60
16732;DHT22;8484;50.904;9.192;2023-05-29T13:15:39;26.50;83.90
16732;DHT22;8484;50.904;9.192;2023-05-29T13:18:06;26.40;84.70
16732;DHT22;8484;50.904;9.192;2023-05-29T13:20:33;26.80;84.80
16732;DHT22;8484;50.904;9.192;2023-05-29T13:23:00;27.50;85.30
16732;DHT22;8484;50.904;9.192;2023-05-29T13:25:28;27.10;84.00
16732;DHT22;8484;50.904;9.192;2023-05-29T13:27:55;27.00;85.80
16732;DHT22;8484;50.904;9.192;2023-05-29T13:30:22;27.70;83.20
16732;DHT22;8484;50.904;9.192;2023-05-29T13:32:50;28.20;80.40
16732;DHT22;8484;50.904;9.192;2023-05-29T13:35:17;27.50;86.40
16732;DHT22;8484;50.904;9.192;2023-05-29T13:37:44;26.40;85.50
16732;DHT22;8484;50.904;9.192;2023-05-29T13:40:11;26.60;83.40
16732;DHT22;8484;50.904;9.192;2023-05-29T13:42:40;26.70;81.40
16732;DHT22;8484;50.904;9.192;2023-05-29T13:45:08;26.50;84.00
16732;DHT22;8484;50.904;9.192;2023-05-29T13:47:35;26.10;83.10
16732;DHT22;8484;50.904;9.192;2023-05-29T13:50:03;25.80;87.30
16732;DHT22;8484;50.904;9.192;2023-05-29T13:52:30;25.80;88.80
16732;DHT22;8484;50.904;9.192;2023-05-29T13:54:57;26.50;84.70
16732;DHT22;8484;50.904;9.192;2023-05-29T13:57:27;27.30;84.90
16732;DHT22;8484;50.904;9.192;2023-05-29T13:59:56;26.90;85.00
16732;DHT22;8484;50.904;9.192;2023-05-29T14:02:23;26.70;85.80
16732;DHT22;8484;50.904;9.192;2023-05-29T14:04:52;26.60;83.40
16732;DHT22;8484;50.904;9.192;2023-05-29T14:07:19;25.30;88.80
16732;DHT22;8484;50.904;9.192;2023-05-29T14:09:46;25.10;86.90
16732;DHT22;8484;50.904;9.192;2023-05-29T14:12:12;25.30;85.40
16732;DHT22;8484;50.904;9.192;2023-05-29T14:14:39;25.70;86.60
16732;DHT22;8484;50.904;9.192;2023-05-29T14:17:08;26.40;83.90
16732;DHT22;8484;50.904;9.192;2023-05-29T14:19:35;26.30;86.00
16732;DHT22;8484;50.904;9.192;2023-05-29T14:22:02;25.70;86.20
16732;DHT22;8484;50.904;9.192;2023-05-29T14:24:29;25.50;87.20
16732;DHT22;8484;50.904;9.192;2023-05-29T14:26:57;25.80;87.00
16732;DHT22;8484;50.904;9.192;2023-05-29T14:29:24;26.10;86.80
16732;DHT22;8484;50.904;9.192;2023-05-29T14:31:51;25.80;85.70
16732;DHT22;8484;50.904;9.192;2023-05-29T14:34:20;25.50;87.90
16732;DHT22;8484;50.904;9.192;2023-05-29T14:36:47;25.70;86.30
16732;DHT22;8484;50.904;9.192;2023-05-29T14:39:14;25.50;87.50
16732;DHT22;8484;50.904;9.192;2023-05-29T14:41:41;24.60;90.00
16732;DHT22;8484;50.904;9.192;2023-05-29T14:44:08;24.60;90.00
16732;DHT22;8484;50.904;9.192;2023-05-29T14:46:36;24.10;90.60
16732;DHT22;8484;50.904;9.192;2023-05-29T14:49:03;23.80;92.00
16732;DHT22;8484;50.904;9.192;2023-05-29T14:51:31;23.80;91.00
16732;DHT22;8484;50.904;9.192;2023-05-29T14:53:58;23.60;91.80
16732;DHT22;8484;50.904;9.192;2023-05-29T14:56:25;24.00;91.20
16732;DHT22;8484;50.904;9.192;2023-05-29T14:58:52;24.40;91.70
16732;DHT22;8484;50.904;9.192;2023-05-29T15:01:19;24.40;91.40
16732;DHT22;8484;50.904;9.192;2023-05-29T15:03:46;24.40;91.80
16732;DHT22;8484;50.904;9.192;2023-05-29T15:06:13;24.50;89.30
16732;DHT22;8484;50.904;9.192;2023-05-29T15:08:41;24.30;89.50
16732;DHT22;8484;50.904;9.192;2023-05-29T15:11:08;23.80;91.20
16732;DHT22;8484;50.904;9.192;2023-05-29T15:13:37;23.40;92.00
16732;DHT22;8484;50.904;9.192;2023-05-29T15:16:04;24.00;91.70
16732;DHT22;8484;50.904;9.192;2023-05-29T15:18:32;24.30;91.00
16732;DHT22;8484;50.904;9.192;2023-05-29T15:20:59;23.90;91.20
16732;DHT22;8484;50.904;9.192;2023-05-29T15:23:26;24.60;90.20
16732;DHT22;8484;50.904;9.192;2023-05-29T15:25:54;24.50;90.20
16732;DHT22;8484;50.904;9.192;2023-05-29T15:28:21;24.70;89.40
16732;DHT22;8484;50.904;9.192;2023-05-29T15:30:48;24.90;88.60
16732;DHT22;8484;50.904;9.192;2023-05-29T15:33:15;24.60;89.30
16732;DHT22;8484;50.904;9.192;2023-05-29T15:35:42;24.50;89.40
16732;DHT22;8484;50.904;9.192;2023-05-29T15:38:09;24.50;88.40
16732;DHT22;8484;50.904;9.192;2023-05-29T15:40:38;24.70;89.10
16732;DHT22;8484;50.904;9.192;2023-05-29T15:43:06;24.60;88.10
16732;DHT22;8484;50.904;9.192;2023-05-29T15:45:33;24.80;87.50
16732;DHT22;8484;50.904;9.192;2023-05-29T15:48:00;24.60;88.70
16732;DHT22;8484;50.904;9.192;2023-05-29T15:50:27;24.60;88.60
16732;DHT22;8484;50.904;9.192;2023-05-29T15:52:54;24.50;89.30